Terminal Aerodrome Forecast
Issued by NWS Charleston, WV

Current Version | Previous Version | Graphics & Text | Print | Product List | Glossary On
Versions: 1 2 3 4 5 6 7 8 9 10 11 12 13 14 15 16 17 18 19 20 21 22 23 24 25 26
000
FTUS41 KRLX 261700 RRA
TAFPKB
TAF
KPKB 261743Z 2618/2718 VRB03KT P6SM SKC
     FM270500 00000KT 6SM BR FEW060
     FM271000 00000KT 4SM BR BKN050
     FM271300 VRB03KT P6SM BKN040=

USA.gov is the U.S. government's official web portal to all federal, state and local government web resources and services.